Terminal Aerodrome Forecast
Issued by NWS

Home | Current Version | Previous Version | Text Only | Print | Product List | Glossary Off
Versions: 1 2 3 4 5 6 7 8 9 10 11 12 13 14 15 16 17 18 19 20 21 22 23 24

886
FTUS43 KBIS 241731
TAFJMS
TAF
KJMS 241731Z 2418/2518 34012G20KT P6SM SCT025
     FM250300 33008KT P6SM SCT060
     FM251200 27007KT P6SM BKN035=

USA.gov is the U.S. government's official web portal to all federal, state and local government web resources and services.